Washington, DC (20038)

8:01 AM EDT on August 29, 2014 (GMT -0400)
Washington | Change Station
CLOSE
Current Station
Airport
Location: Washington,
Elevation: 13 ft
Nearby Weather Stations

Elev 13 ft 38.85 °N, 77.03 °W | Updated 9 minutes ago

Scattered Clouds
Scattered Clouds
68 °F
Feels Like 68 °F
N
7
Wind Variable Wind from NNE

Today
High -- | Low -- °F
--% Chance of Precip.
Yesterday
High -- | Low -- °F
Precip. -- in
6:34 AM 7:43 PM
Waxing Crescent, 14% visible
Pressure 30.19 in
Visibility 10.0 miles
Clouds Few 8000 ft
Scattered Clouds 25000 ft
Dew Point 50 °F
Humidity 52%
Rainfall 0.00 in
Snow Depth Not available.
UV 1 out of 12
Pollen 9.80 out of 12
Air Quality Not available.
Flu Activity Not available.
METAR KDCA 291152Z 03006KT 10SM FEW080 SCT250 20/10 A3019 RMK AO2 SLP223 T02000100 10211 20183 51015

More Conditions Fewer Conditions

Pressure 30.19 in
Visibility 10.0 miles
Clouds Few 8000 ft
Scattered Clouds 25000 ft
Dew Point 50 °F
Humidity 52%
Rainfall 0.00 in
Snow Depth Not available.
UV 1 out of 12
Pollen 9.80 out of 12
Air Quality Not available.
Flu Activity Not available.
METAR KDCA 291152Z 03006KT 10SM FEW080 SCT250 20/10 A3019 RMK AO2 SLP223 T02000100 10211 20183 51015

More Conditions Fewer Conditions

10-Day Weather Forecast

Almanac

Astronomy

Aug. 29, 2014 Rise Set
Actual Time 6:34 AM EDT 7:43 PM EDT
Civil Twilight 6:06 AM EDT 8:10 PM EDT
Nautical Twilight 5:34 AM EDT 8:43 PM EDT
Astronomical Twilight 4:59 AM EDT 9:17 PM EDT
Moon 10:19 AM EDT 9:42 PM EDT
Length of Visible Light 14h 03m
Length of Day
13h 08m
Tomorrow will be 2m 24s shorter.
Waxing Crescent, 14% of the Moon is Illuminated
Today
Waxing Crescent
Sep 2
First Quarter
Sep 8
Full
Sep 15
Last Quarter
Sep 24
New

Today's Extremes

State Highs State Lows

Community

WunderPhotos

Upload Photos

1,748,214 photos uploaded!

Nearby

Snow Depth

Station Depth Elevation
No new snow has been reported.

Earthquake Activity

City Distance Mag. Time & Date
No recent earthquake activity has been reported nearby.
Minimum magnitude displayed is 2.5.

Coastal Water Temperatures

Place Temperature
Washington, DC 79.0 °F
Baltimore, MD 81.0 °F
Solomons Island, MD 80.1 °F

Nearby Weather Stations